»·PEaware :: N109MS KCMA-KSMX

N109MS :: KCMA-KSMX

FLIGHT INFORMATION

Flight Status: Arrived
Operator: Privately registered:
United States
More flights under this callsign
Pilot: Mike T. (22542)
Aircraft: CIRRUS SR-22 TURBO
(S22T)
More flights by this aircraft type
Origin: KCMA Camarillo
United States
Destination: KSMX Santa Maria Pub/Capt Hancock
United States
More flights between these airports :: More routes between these airports
Route:
File this flight plan on PilotEdge
Remarks:
Altitude:
(Current/Filed)
6,500ft
Speed:
(Current/Filed)
160kts
Departed: 03-Feb-19 05:36 PM
Arrived: 03-Feb-19 06:05 PM
Distance/Time
Traveled:
79nm/0:29
Distance/Time
To Go:
Arrived

Flight Plot

Page will automatically refresh every two minutes.


Map Options




Map Legend


Flown Route
Filed Route
Departure Airport
Arrival Airport
Navaid (VOR, NDB)
Fix

Horizontal Profiles

Position Reports

Time Latitude Longitude Heading Altitude Ground
Speed
03-Feb-19 17:19 34.210920 -119.095562 180 79ft 0kts
03-Feb-19 17:20 34.210920 -119.095562 180 79ft 0kts
03-Feb-19 17:21 34.210920 -119.095562 180 79ft 0kts
03-Feb-19 17:22 34.210920 -119.095562 180 79ft 0kts
03-Feb-19 17:23 34.210920 -119.095562 180 79ft 0kts
03-Feb-19 17:24 34.210920 -119.095562 180 79ft 0kts
03-Feb-19 17:25 34.210916 -119.095562 180 79ft 0kts
03-Feb-19 17:26 34.210915 -119.095562 180 79ft 0kts
03-Feb-19 17:26 34.210914 -119.095562 180 79ft 0kts
03-Feb-19 17:28 34.210912 -119.095562 180 79ft 0kts
03-Feb-19 17:29 34.210911 -119.095562 180 79ft 0kts
03-Feb-19 17:29 34.210759 -119.095789 330 79ft 3kts
03-Feb-19 17:30 34.211376 -119.094340 87 79ft 16kts
03-Feb-19 17:31 34.211343 -119.089291 92 79ft 13kts
03-Feb-19 17:32 34.211328 -119.084780 76 79ft 11kts
03-Feb-19 17:33 34.212990 -119.084591 359 79ft 0kts
03-Feb-19 17:34 34.213740 -119.085119 235 79ft 5kts
03-Feb-19 17:35 34.214065 -119.114479 270 652ft 124kts
03-Feb-19 17:36 34.218751 -119.156724 308 1687ft 131kts
03-Feb-19 17:37 34.242711 -119.191783 312 2690ft 139kts
03-Feb-19 17:38 34.268110 -119.229405 312 3696ft 153kts
03-Feb-19 17:39 34.301337 -119.267308 320 4481ft 165kts
03-Feb-19 17:40 34.337275 -119.301562 320 5276ft 164kts
03-Feb-19 17:41 34.369449 -119.341157 310 6085ft 165kts
03-Feb-19 17:42 34.402020 -119.382982 311 6503ft 179kts
03-Feb-19 17:43 34.436914 -119.427825 311 6500ft 185kts
03-Feb-19 17:44 34.472347 -119.473716 311 6494ft 186kts
03-Feb-19 17:45 34.507816 -119.520138 311 6500ft 188kts
03-Feb-19 17:46 34.541775 -119.568395 310 6500ft 187kts
03-Feb-19 17:47 34.569080 -119.622291 295 6500ft 189kts
03-Feb-19 17:48 34.590191 -119.680593 295 6500ft 189kts
03-Feb-19 17:49 34.611436 -119.739011 295 6500ft 189kts
03-Feb-19 17:50 34.632683 -119.797454 295 6501ft 188kts
03-Feb-19 17:51 34.653635 -119.855868 295 6502ft 188kts
03-Feb-19 17:52 34.674492 -119.914044 295 6501ft 188kts
03-Feb-19 17:53 34.695483 -119.972377 296 6502ft 188kts
03-Feb-19 17:54 34.718287 -120.030417 297 5943ft 187kts
03-Feb-19 17:55 34.740761 -120.085954 297 5244ft 179kts
03-Feb-19 17:56 34.762667 -120.139532 297 4553ft 175kts
03-Feb-19 17:57 34.783902 -120.191583 297 3856ft 167kts
03-Feb-19 17:58 34.803341 -120.239453 297 3140ft 148kts
03-Feb-19 17:59 34.820753 -120.283754 297 2302ft 138kts
03-Feb-19 18:00 34.832603 -120.325663 285 2206ft 131kts
03-Feb-19 18:01 34.841265 -120.370097 291 1989ft 132kts
03-Feb-19 18:02 34.859098 -120.405102 313 1348ft 115kts
03-Feb-19 18:03 34.881115 -120.431641 314 652ft 112kts
03-Feb-19 18:04 34.899346 -120.453391 335 265ft 19kts
03-Feb-19 18:05 34.899928 -120.453496 3 265ft 0kts
03-Feb-19 18:06 34.901764 -120.453490 38 265ft 12kts
03-Feb-19 18:07 34.901920 -120.453264 55 265ft 0kts

Navigation Log

Ident Type
Flight plan parsing failed, navigation log unavailable